sensor_id;sensor_type;location;lat;lon;timestamp;temperature;humidity
22635;DHT22;11484;50.858;4.384;2024-01-10T00:00:16;-3.00;99.90
22635;DHT22;11484;50.858;4.384;2024-01-10T00:02:42;-3.00;99.90
22635;DHT22;11484;50.858;4.384;2024-01-10T00:05:08;-2.90;99.90
22635;DHT22;11484;50.858;4.384;2024-01-10T00:07:34;-2.80;99.90
22635;DHT22;11484;50.858;4.384;2024-01-10T00:10:02;-2.80;99.90
22635;DHT22;11484;50.858;4.384;2024-01-10T00:12:28;-3.00;99.90
22635;DHT22;11484;50.858;4.384;2024-01-10T00:14:58;-3.00;99.90
22635;DHT22;11484;50.858;4.384;2024-01-10T00:17:24;-3.10;99.90
22635;DHT22;11484;50.858;4.384;2024-01-10T00:19:50;-3.00;99.90
22635;DHT22;11484;50.858;4.384;2024-01-10T00:22:16;-3.10;99.90
22635;DHT22;11484;50.858;4.384;2024-01-10T00:24:41;-3.10;99.90
22635;DHT22;11484;50.858;4.384;2024-01-10T00:27:07;-3.20;99.90
22635;DHT22;11484;50.858;4.384;2024-01-10T00:29:33;-3.10;99.90
22635;DHT22;11484;50.858;4.384;2024-01-10T00:31:58;-3.10;99.90
22635;DHT22;11484;50.858;4.384;2024-01-10T00:34:25;-3.10;99.90
22635;DHT22;11484;50.858;4.384;2024-01-10T00:36:50;-3.10;99.90
22635;DHT22;11484;50.858;4.384;2024-01-10T00:39:16;-3.10;99.90
22635;DHT22;11484;50.858;4.384;2024-01-10T00:41:42;-3.10;99.90
22635;DHT22;11484;50.858;4.384;2024-01-10T00:44:08;-3.10;99.90
22635;DHT22;11484;50.858;4.384;2024-01-10T00:46:34;-3.00;99.90
22635;DHT22;11484;50.858;4.384;2024-01-10T00:48:59;-3.00;99.90
22635;DHT22;11484;50.858;4.384;2024-01-10T00:51:25;-2.90;99.90
22635;DHT22;11484;50.858;4.384;2024-01-10T00:53:51;-3.00;99.90
22635;DHT22;11484;50.858;4.384;2024-01-10T00:56:16;-3.00;99.90
22635;DHT22;11484;50.858;4.384;2024-01-10T00:58:42;-3.10;99.90
22635;DHT22;11484;50.858;4.384;2024-01-10T01:01:08;-3.10;99.90
22635;DHT22;11484;50.858;4.384;2024-01-10T01:03:34;-3.20;99.90
22635;DHT22;11484;50.858;4.384;2024-01-10T01:05:59;-3.20;99.90
22635;DHT22;11484;50.858;4.384;2024-01-10T01:08:25;-3.30;99.90
22635;DHT22;11484;50.858;4.384;2024-01-10T01:10:51;-3.30;99.90
22635;DHT22;11484;50.858;4.384;2024-01-10T01:13:16;-3.20;99.90
22635;DHT22;11484;50.858;4.384;2024-01-10T01:15:43;-3.30;99.90
22635;DHT22;11484;50.858;4.384;2024-01-10T01:18:08;-3.20;99.90
22635;DHT22;11484;50.858;4.384;2024-01-10T01:20:35;-3.20;99.90
22635;DHT22;11484;50.858;4.384;2024-01-10T01:23:01;-3.20;99.90
22635;DHT22;11484;50.858;4.384;2024-01-10T01:25:26;-3.30;99.90
22635;DHT22;11484;50.858;4.384;2024-01-10T01:27:52;-3.30;99.90
22635;DHT22;11484;50.858;4.384;2024-01-10T01:30:17;-3.20;99.90
22635;DHT22;11484;50.858;4.384;2024-01-10T01:32:43;-3.20;99.90
22635;DHT22;11484;50.858;4.384;2024-01-10T01:35:09;-3.20;99.90
22635;DHT22;11484;50.858;4.384;2024-01-10T01:37:35;-3.10;99.90
22635;DHT22;11484;50.858;4.384;2024-01-10T01:40:00;-3.20;99.90
22635;DHT22;11484;50.858;4.384;2024-01-10T01:42:26;-3.20;99.90
22635;DHT22;11484;50.858;4.384;2024-01-10T01:44:52;-3.40;99.90
22635;DHT22;11484;50.858;4.384;2024-01-10T01:47:17;-3.40;99.90
22635;DHT22;11484;50.858;4.384;2024-01-10T01:49:43;-3.40;99.90
22635;DHT22;11484;50.858;4.384;2024-01-10T01:52:10;-3.30;99.90
22635;DHT22;11484;50.858;4.384;2024-01-10T01:54:36;-3.40;99.90
22635;DHT22;11484;50.858;4.384;2024-01-10T01:57:02;-3.40;99.90
22635;DHT22;11484;50.858;4.384;2024-01-10T01:59:28;-3.50;99.90
22635;DHT22;11484;50.858;4.384;2024-01-10T02:01:55;-3.50;99.90
22635;DHT22;11484;50.858;4.384;2024-01-10T02:04:22;-3.50;99.90
22635;DHT22;11484;50.858;4.384;2024-01-10T02:06:48;-3.50;99.90
22635;DHT22;11484;50.858;4.384;2024-01-10T02:09:14;-3.40;99.90
22635;DHT22;11484;50.858;4.384;2024-01-10T02:11:40;-3.40;99.90
22635;DHT22;11484;50.858;4.384;2024-01-10T02:14:06;-3.40;99.90
22635;DHT22;11484;50.858;4.384;2024-01-10T02:16:32;-3.40;99.90
22635;DHT22;11484;50.858;4.384;2024-01-10T02:18:57;-3.40;99.90
22635;DHT22;11484;50.858;4.384;2024-01-10T02:21:23;-3.50;99.90
22635;DHT22;11484;50.858;4.384;2024-01-10T02:23:49;-3.40;99.90
22635;DHT22;11484;50.858;4.384;2024-01-10T02:26:15;-3.40;99.90
22635;DHT22;11484;50.858;4.384;2024-01-10T02:28:41;-3.40;99.90
22635;DHT22;11484;50.858;4.384;2024-01-10T02:31:07;-3.50;99.90
22635;DHT22;11484;50.858;4.384;2024-01-10T02:33:33;-3.50;99.90
22635;DHT22;11484;50.858;4.384;2024-01-10T02:35:58;-3.50;99.90
22635;DHT22;11484;50.858;4.384;2024-01-10T02:38:24;-3.50;99.90
22635;DHT22;11484;50.858;4.384;2024-01-10T02:40:50;-3.50;99.90
22635;DHT22;11484;50.858;4.384;2024-01-10T02:43:15;-3.50;99.90
22635;DHT22;11484;50.858;4.384;2024-01-10T02:45:41;-3.50;99.90
22635;DHT22;11484;50.858;4.384;2024-01-10T02:48:07;-3.40;99.90
22635;DHT22;11484;50.858;4.384;2024-01-10T02:50:33;-3.40;99.90
22635;DHT22;11484;50.858;4.384;2024-01-10T02:52:58;-3.50;99.90
22635;DHT22;11484;50.858;4.384;2024-01-10T02:55:24;-3.40;99.90
22635;DHT22;11484;50.858;4.384;2024-01-10T02:57:50;-3.40;99.90
22635;DHT22;11484;50.858;4.384;2024-01-10T03:00:16;-3.40;99.90
22635;DHT22;11484;50.858;4.384;2024-01-10T03:02:41;-3.40;99.90
22635;DHT22;11484;50.858;4.384;2024-01-10T03:05:07;-3.50;99.90
22635;DHT22;11484;50.858;4.384;2024-01-10T03:07:33;-3.50;99.90
22635;DHT22;11484;50.858;4.384;2024-01-10T03:09:58;-3.40;99.90
22635;DHT22;11484;50.858;4.384;2024-01-10T03:12:24;-3.30;99.90
22635;DHT22;11484;50.858;4.384;2024-01-10T03:14:50;-3.20;99.90
22635;DHT22;11484;50.858;4.384;2024-01-10T03:17:15;-3.10;99.90
22635;DHT22;11484;50.858;4.384;2024-01-10T03:19:41;-3.00;99.90
22635;DHT22;11484;50.858;4.384;2024-01-10T03:22:09;-2.90;99.90
22635;DHT22;11484;50.858;4.384;2024-01-10T03:24:36;-3.00;99.90
22635;DHT22;11484;50.858;4.384;2024-01-10T03:27:03;-3.10;99.90
22635;DHT22;11484;50.858;4.384;2024-01-10T03:29:29;-3.20;99.90
22635;DHT22;11484;50.858;4.384;2024-01-10T03:31:54;-3.40;99.90
22635;DHT22;11484;50.858;4.384;2024-01-10T03:34:20;-3.40;99.90
22635;DHT22;11484;50.858;4.384;2024-01-10T03:36:46;-3.40;99.90
22635;DHT22;11484;50.858;4.384;2024-01-10T03:39:11;-3.30;99.90
22635;DHT22;11484;50.858;4.384;2024-01-10T03:41:37;-3.40;99.90
22635;DHT22;11484;50.858;4.384;2024-01-10T03:44:04;-3.30;99.90
22635;DHT22;11484;50.858;4.384;2024-01-10T03:46:29;-3.20;99.90
22635;DHT22;11484;50.858;4.384;2024-01-10T03:48:55;-3.20;99.90
22635;DHT22;11484;50.858;4.384;2024-01-10T03:51:21;-3.20;99.90
22635;DHT22;11484;50.858;4.384;2024-01-10T03:53:46;-3.20;99.90
22635;DHT22;11484;50.858;4.384;2024-01-10T03:56:14;-3.20;99.90
22635;DHT22;11484;50.858;4.384;2024-01-10T03:58:40;-3.30;99.90
22635;DHT22;11484;50.858;4.384;2024-01-10T04:01:09;-3.30;99.90
22635;DHT22;11484;50.858;4.384;2024-01-10T04:03:35;-3.30;99.90
22635;DHT22;11484;50.858;4.384;2024-01-10T04:06:02;-3.30;99.90
22635;DHT22;11484;50.858;4.384;2024-01-10T04:08:28;-3.40;99.90
22635;DHT22;11484;50.858;4.384;2024-01-10T04:10:54;-3.40;99.90
22635;DHT22;11484;50.858;4.384;2024-01-10T04:13:20;-3.50;99.90
22635;DHT22;11484;50.858;4.384;2024-01-10T04:15:46;-3.60;99.90
22635;DHT22;11484;50.858;4.384;2024-01-10T04:18:12;-3.50;99.90
22635;DHT22;11484;50.858;4.384;2024-01-10T04:20:37;-3.40;99.90
22635;DHT22;11484;50.858;4.384;2024-01-10T04:23:03;-3.40;99.90
22635;DHT22;11484;50.858;4.384;2024-01-10T04:25:29;-3.50;99.90
22635;DHT22;11484;50.858;4.384;2024-01-10T04:27:54;-3.50;99.90
22635;DHT22;11484;50.858;4.384;2024-01-10T04:30:21;-3.50;99.90
22635;DHT22;11484;50.858;4.384;2024-01-10T04:32:46;-3.50;99.90
22635;DHT22;11484;50.858;4.384;2024-01-10T04:35:12;-3.50;99.90
22635;DHT22;11484;50.858;4.384;2024-01-10T04:37:38;-3.60;99.90
22635;DHT22;11484;50.858;4.384;2024-01-10T04:40:04;-3.70;99.90
22635;DHT22;11484;50.858;4.384;2024-01-10T04:42:31;-3.70;99.90
22635;DHT22;11484;50.858;4.384;2024-01-10T04:44:56;-3.80;99.90
22635;DHT22;11484;50.858;4.384;2024-01-10T04:47:22;-3.80;99.90
22635;DHT22;11484;50.858;4.384;2024-01-10T04:49:48;-3.80;99.90
22635;DHT22;11484;50.858;4.384;2024-01-10T04:52:13;-3.80;99.90
22635;DHT22;11484;50.858;4.384;2024-01-10T04:54:39;-3.80;99.90
22635;DHT22;11484;50.858;4.384;2024-01-10T04:57:05;-3.90;99.90
22635;DHT22;11484;50.858;4.384;2024-01-10T04:59:30;-4.00;99.90
22635;DHT22;11484;50.858;4.384;2024-01-10T05:01:56;-3.90;99.90
22635;DHT22;11484;50.858;4.384;2024-01-10T05:04:22;-4.00;99.90
22635;DHT22;11484;50.858;4.384;2024-01-10T05:06:47;-4.00;99.90
22635;DHT22;11484;50.858;4.384;2024-01-10T05:09:13;-3.90;99.90
22635;DHT22;11484;50.858;4.384;2024-01-10T05:11:39;-3.90;99.90
22635;DHT22;11484;50.858;4.384;2024-01-10T05:14:05;-3.90;99.90
22635;DHT22;11484;50.858;4.384;2024-01-10T05:16:31;-4.00;99.90
22635;DHT22;11484;50.858;4.384;2024-01-10T05:18:57;-4.00;99.90
22635;DHT22;11484;50.858;4.384;2024-01-10T05:21:26;-3.90;99.90
22635;DHT22;11484;50.858;4.384;2024-01-10T05:23:52;-3.90;99.90
22635;DHT22;11484;50.858;4.384;2024-01-10T05:26:17;-3.80;99.90
22635;DHT22;11484;50.858;4.384;2024-01-10T05:28:43;-3.90;99.90
22635;DHT22;11484;50.858;4.384;2024-01-10T05:31:09;-4.00;99.90
22635;DHT22;11484;50.858;4.384;2024-01-10T05:33:34;-3.90;99.90
22635;DHT22;11484;50.858;4.384;2024-01-10T05:36:00;-3.90;99.90
22635;DHT22;11484;50.858;4.384;2024-01-10T05:38:25;-3.90;99.90
22635;DHT22;11484;50.858;4.384;2024-01-10T05:40:51;-3.90;99.90
22635;DHT22;11484;50.858;4.384;2024-01-10T05:43:17;-3.90;99.90
22635;DHT22;11484;50.858;4.384;2024-01-10T05:45:43;-3.80;99.90
22635;DHT22;11484;50.858;4.384;2024-01-10T05:48:08;-3.70;99.90
22635;DHT22;11484;50.858;4.384;2024-01-10T05:50:34;-3.80;99.90
22635;DHT22;11484;50.858;4.384;2024-01-10T05:53:00;-3.70;99.90
22635;DHT22;11484;50.858;4.384;2024-01-10T05:55:25;-3.80;99.90
22635;DHT22;11484;50.858;4.384;2024-01-10T05:57:51;-3.90;99.90
22635;DHT22;11484;50.858;4.384;2024-01-10T06:00:17;-3.90;99.90
22635;DHT22;11484;50.858;4.384;2024-01-10T06:02:43;-4.00;99.90
22635;DHT22;11484;50.858;4.384;2024-01-10T06:05:09;-3.90;99.90
22635;DHT22;11484;50.858;4.384;2024-01-10T06:07:36;-3.70;99.90
22635;DHT22;11484;50.858;4.384;2024-01-10T06:10:02;-3.90;99.90
22635;DHT22;11484;50.858;4.384;2024-01-10T06:12:28;-3.90;99.90
22635;DHT22;11484;50.858;4.384;2024-01-10T06:14:54;-3.80;99.90
22635;DHT22;11484;50.858;4.384;2024-01-10T06:17:20;-4.00;99.90
22635;DHT22;11484;50.858;4.384;2024-01-10T06:19:45;-4.00;99.90
22635;DHT22;11484;50.858;4.384;2024-01-10T06:22:11;-4.00;99.90
22635;DHT22;11484;50.858;4.384;2024-01-10T06:24:37;-4.00;99.90
22635;DHT22;11484;50.858;4.384;2024-01-10T06:27:04;-4.00;99.90
22635;DHT22;11484;50.858;4.384;2024-01-10T06:29:31;-4.00;99.90
22635;DHT22;11484;50.858;4.384;2024-01-10T06:31:57;-3.90;99.90
22635;DHT22;11484;50.858;4.384;2024-01-10T06:34:23;-3.80;99.90
22635;DHT22;11484;50.858;4.384;2024-01-10T06:36:49;-3.60;99.90
22635;DHT22;11484;50.858;4.384;2024-01-10T06:39:15;-3.60;99.90
22635;DHT22;11484;50.858;4.384;2024-01-10T06:41:42;-3.60;99.90
22635;DHT22;11484;50.858;4.384;2024-01-10T06:44:08;-3.60;99.90
22635;DHT22;11484;50.858;4.384;2024-01-10T06:46:34;-3.60;99.90
22635;DHT22;11484;50.858;4.384;2024-01-10T06:48:59;-3.70;99.90
22635;DHT22;11484;50.858;4.384;2024-01-10T06:51:25;-3.70;99.90
22635;DHT22;11484;50.858;4.384;2024-01-10T06:53:54;-3.70;99.90
22635;DHT22;11484;50.858;4.384;2024-01-10T06:56:26;-3.50;99.90
22635;DHT22;11484;50.858;4.384;2024-01-10T06:58:51;-3.60;99.90
22635;DHT22;11484;50.858;4.384;2024-01-10T07:01:19;-3.50;99.90
22635;DHT22;11484;50.858;4.384;2024-01-10T07:03:47;-3.70;99.90
22635;DHT22;11484;50.858;4.384;2024-01-10T07:06:13;-3.70;99.90
22635;DHT22;11484;50.858;4.384;2024-01-10T07:08:40;-3.80;99.90
22635;DHT22;11484;50.858;4.384;2024-01-10T07:11:08;-3.80;99.90
22635;DHT22;11484;50.858;4.384;2024-01-10T07:13:33;-3.70;99.90
22635;DHT22;11484;50.858;4.384;2024-01-10T07:15:59;-3.60;99.90
22635;DHT22;11484;50.858;4.384;2024-01-10T07:18:28;-3.40;99.90
22635;DHT22;11484;50.858;4.384;2024-01-10T07:20:54;-3.50;99.90
22635;DHT22;11484;50.858;4.384;2024-01-10T07:23:20;-3.50;99.90
22635;DHT22;11484;50.858;4.384;2024-01-10T07:25:45;-3.60;99.90
22635;DHT22;11484;50.858;4.384;2024-01-10T07:28:11;-3.50;99.90
22635;DHT22;11484;50.858;4.384;2024-01-10T07:30:37;-3.40;99.90
22635;DHT22;11484;50.858;4.384;2024-01-10T07:33:02;-3.40;99.90
22635;DHT22;11484;50.858;4.384;2024-01-10T07:35:30;-3.40;99.90
22635;DHT22;11484;50.858;4.384;2024-01-10T07:37:56;-3.50;99.90
22635;DHT22;11484;50.858;4.384;2024-01-10T07:40:21;-3.60;99.90
22635;DHT22;11484;50.858;4.384;2024-01-10T07:42:48;-3.70;99.90
22635;DHT22;11484;50.858;4.384;2024-01-10T07:45:14;-3.80;99.90
22635;DHT22;11484;50.858;4.384;2024-01-10T07:47:39;-3.90;99.90
22635;DHT22;11484;50.858;4.384;2024-01-10T07:50:10;-3.90;99.90
22635;DHT22;11484;50.858;4.384;2024-01-10T07:52:36;-4.00;99.90
22635;DHT22;11484;50.858;4.384;2024-01-10T07:55:02;-3.90;99.90
22635;DHT22;11484;50.858;4.384;2024-01-10T07:57:32;-3.90;99.90
22635;DHT22;11484;50.858;4.384;2024-01-10T07:59:59;-3.80;99.90
22635;DHT22;11484;50.858;4.384;2024-01-10T08:02:25;-3.80;99.90
22635;DHT22;11484;50.858;4.384;2024-01-10T08:04:52;-3.70;99.90
22635;DHT22;11484;50.858;4.384;2024-01-10T08:07:18;-3.70;99.90
22635;DHT22;11484;50.858;4.384;2024-01-10T08:09:45;-3.70;99.90
22635;DHT22;11484;50.858;4.384;2024-01-10T08:12:12;-3.80;99.90
22635;DHT22;11484;50.858;4.384;2024-01-10T08:14:39;-3.90;99.90
22635;DHT22;11484;50.858;4.384;2024-01-10T08:17:05;-3.90;99.90
22635;DHT22;11484;50.858;4.384;2024-01-10T08:19:32;-4.00;99.90
22635;DHT22;11484;50.858;4.384;2024-01-10T08:21:57;-4.00;99.90
22635;DHT22;11484;50.858;4.384;2024-01-10T08:24:23;-3.90;99.90
22635;DHT22;11484;50.858;4.384;2024-01-10T08:26:49;-3.70;99.90
22635;DHT22;11484;50.858;4.384;2024-01-10T08:29:21;-3.60;99.90
22635;DHT22;11484;50.858;4.384;2024-01-10T08:31:47;-3.60;99.90
22635;DHT22;11484;50.858;4.384;2024-01-10T08:34:13;-3.70;99.90
22635;DHT22;11484;50.858;4.384;2024-01-10T08:36:39;-3.70;99.90
22635;DHT22;11484;50.858;4.384;2024-01-10T08:39:05;-3.60;99.90
22635;DHT22;11484;50.858;4.384;2024-01-10T08:41:32;-3.50;99.90
22635;DHT22;11484;50.858;4.384;2024-01-10T08:44:00;-3.40;99.90
22635;DHT22;11484;50.858;4.384;2024-01-10T08:46:28;-3.50;99.90
22635;DHT22;11484;50.858;4.384;2024-01-10T08:48:53;-3.70;99.90
22635;DHT22;11484;50.858;4.384;2024-01-10T08:51:19;-3.80;99.90
22635;DHT22;11484;50.858;4.384;2024-01-10T08:53:45;-3.80;99.90
22635;DHT22;11484;50.858;4.384;2024-01-10T08:56:10;-3.80;99.90
22635;DHT22;11484;50.858;4.384;2024-01-10T08:58:36;-3.90;99.90
22635;DHT22;11484;50.858;4.384;2024-01-10T09:01:03;-3.80;99.90
22635;DHT22;11484;50.858;4.384;2024-01-10T09:03:30;-3.80;99.90
22635;DHT22;11484;50.858;4.384;2024-01-10T09:05:55;-3.80;99.90
22635;DHT22;11484;50.858;4.384;2024-01-10T09:08:22;-3.70;99.90
22635;DHT22;11484;50.858;4.384;2024-01-10T09:10:47;-3.70;99.90
22635;DHT22;11484;50.858;4.384;2024-01-10T09:13:15;-3.60;99.90
22635;DHT22;11484;50.858;4.384;2024-01-10T09:15:41;-3.60;99.90
22635;DHT22;11484;50.858;4.384;2024-01-10T09:18:07;-3.50;99.90
22635;DHT22;11484;50.858;4.384;2024-01-10T09:20:32;-3.40;99.90
22635;DHT22;11484;50.858;4.384;2024-01-10T09:22:58;-3.40;99.90
22635;DHT22;11484;50.858;4.384;2024-01-10T09:25:26;-3.40;99.90
22635;DHT22;11484;50.858;4.384;2024-01-10T09:27:51;-3.60;99.90
22635;DHT22;11484;50.858;4.384;2024-01-10T09:30:17;-3.70;99.90
22635;DHT22;11484;50.858;4.384;2024-01-10T09:32:44;-3.60;99.90
22635;DHT22;11484;50.858;4.384;2024-01-10T09:35:10;-3.50;99.90
22635;DHT22;11484;50.858;4.384;2024-01-10T09:37:36;-3.50;99.90
22635;DHT22;11484;50.858;4.384;2024-01-10T09:40:05;-3.50;99.90
22635;DHT22;11484;50.858;4.384;2024-01-10T09:42:35;-3.50;99.90
22635;DHT22;11484;50.858;4.384;2024-01-10T09:45:04;-3.40;99.90
22635;DHT22;11484;50.858;4.384;2024-01-10T09:47:32;-3.40;99.90
22635;DHT22;11484;50.858;4.384;2024-01-10T09:49:58;-3.40;99.90
22635;DHT22;11484;50.858;4.384;2024-01-10T09:52:26;-3.30;99.90
22635;DHT22;11484;50.858;4.384;2024-01-10T09:54:57;-3.30;99.90
22635;DHT22;11484;50.858;4.384;2024-01-10T09:57:26;-3.10;99.90
22635;DHT22;11484;50.858;4.384;2024-01-10T09:59:53;-3.00;99.90
22635;DHT22;11484;50.858;4.384;2024-01-10T10:02:23;-2.90;99.90
22635;DHT22;11484;50.858;4.384;2024-01-10T10:05:02;-2.80;99.90
22635;DHT22;11484;50.858;4.384;2024-01-10T10:07:29;-2.60;99.90
22635;DHT22;11484;50.858;4.384;2024-01-10T10:09:55;-2.40;99.90
22635;DHT22;11484;50.858;4.384;2024-01-10T10:12:45;-2.20;99.90
22635;DHT22;11484;50.858;4.384;2024-01-10T10:15:16;-2.20;99.90
22635;DHT22;11484;50.858;4.384;2024-01-10T10:17:46;-2.30;99.90
22635;DHT22;11484;50.858;4.384;2024-01-10T10:20:21;-2.50;99.90
22635;DHT22;11484;50.858;4.384;2024-01-10T10:23:03;-2.50;99.90
22635;DHT22;11484;50.858;4.384;2024-01-10T10:25:36;-2.50;99.90
22635;DHT22;11484;50.858;4.384;2024-01-10T10:28:04;-2.60;99.90
22635;DHT22;11484;50.858;4.384;2024-01-10T10:30:31;-2.60;99.90
22635;DHT22;11484;50.858;4.384;2024-01-10T10:33:03;-2.50;99.90
22635;DHT22;11484;50.858;4.384;2024-01-10T10:35:29;-2.40;99.90
22635;DHT22;11484;50.858;4.384;2024-01-10T10:37:54;-2.30;99.90
22635;DHT22;11484;50.858;4.384;2024-01-10T10:40:21;-2.10;99.90
22635;DHT22;11484;50.858;4.384;2024-01-10T10:42:48;-2.00;99.90
22635;DHT22;11484;50.858;4.384;2024-01-10T10:45:18;-2.00;99.90
22635;DHT22;11484;50.858;4.384;2024-01-10T10:47:45;-2.10;99.90
22635;DHT22;11484;50.858;4.384;2024-01-10T10:50:24;-2.10;99.90
22635;DHT22;11484;50.858;4.384;2024-01-10T10:52:51;-2.10;99.90
22635;DHT22;11484;50.858;4.384;2024-01-10T10:55:20;-2.10;99.90
22635;DHT22;11484;50.858;4.384;2024-01-10T10:57:49;-1.90;99.90
22635;DHT22;11484;50.858;4.384;2024-01-10T11:00:20;-1.90;99.90
22635;DHT22;11484;50.858;4.384;2024-01-10T11:02:47;-1.90;99.90
22635;DHT22;11484;50.858;4.384;2024-01-10T11:05:13;-1.80;99.90
22635;DHT22;11484;50.858;4.384;2024-01-10T11:07:41;-1.80;99.90
22635;DHT22;11484;50.858;4.384;2024-01-10T11:10:29;-1.70;99.90
22635;DHT22;11484;50.858;4.384;2024-01-10T11:24:55;-1.60;99.90
22635;DHT22;11484;50.858;4.384;2024-01-10T11:27:21;-1.60;99.90
22635;DHT22;11484;50.858;4.384;2024-01-10T11:29:47;-1.60;99.90
22635;DHT22;11484;50.858;4.384;2024-01-10T11:32:16;-1.50;99.90
22635;DHT22;11484;50.858;4.384;2024-01-10T11:35:16;-1.50;99.90
22635;DHT22;11484;50.858;4.384;2024-01-10T11:37:47;-1.50;99.90
22635;DHT22;11484;50.858;4.384;2024-01-10T11:40:15;-1.50;99.90
22635;DHT22;11484;50.858;4.384;2024-01-10T11:42:51;-1.50;99.90
22635;DHT22;11484;50.858;4.384;2024-01-10T11:48:01;-1.40;99.90
22635;DHT22;11484;50.858;4.384;2024-01-10T11:50:28;-1.40;99.90
22635;DHT22;11484;50.858;4.384;2024-01-10T11:52:56;-1.30;99.90
22635;DHT22;11484;50.858;4.384;2024-01-10T11:55:51;-1.00;99.90
22635;DHT22;11484;50.858;4.384;2024-01-10T11:58:20;-1.10;99.90
22635;DHT22;11484;50.858;4.384;2024-01-10T12:00:48;-1.10;99.90
22635;DHT22;11484;50.858;4.384;2024-01-10T12:03:15;-1.10;99.90
22635;DHT22;11484;50.858;4.384;2024-01-10T12:05:42;-1.10;99.90
22635;DHT22;11484;50.858;4.384;2024-01-10T12:08:09;-1.00;99.90
22635;DHT22;11484;50.858;4.384;2024-01-10T12:10:35;-1.00;99.90
22635;DHT22;11484;50.858;4.384;2024-01-10T12:13:04;-0.90;99.90
22635;DHT22;11484;50.858;4.384;2024-01-10T12:15:30;-0.80;99.90
22635;DHT22;11484;50.858;4.384;2024-01-10T12:17:56;-0.70;99.90
22635;DHT22;11484;50.858;4.384;2024-01-10T12:20:22;-0.60;99.90
22635;DHT22;11484;50.858;4.384;2024-01-10T12:22:48;-0.70;99.90
22635;DHT22;11484;50.858;4.384;2024-01-10T12:25:13;-0.60;99.90
22635;DHT22;11484;50.858;4.384;2024-01-10T12:27:40;-0.40;99.90
22635;DHT22;11484;50.858;4.384;2024-01-10T12:30:06;-0.50;99.90
22635;DHT22;11484;50.858;4.384;2024-01-10T12:32:33;-0.50;99.90
22635;DHT22;11484;50.858;4.384;2024-01-10T12:35:03;-0.50;99.90
22635;DHT22;11484;50.858;4.384;2024-01-10T12:37:29;-0.50;99.90
22635;DHT22;11484;50.858;4.384;2024-01-10T12:39:55;-0.60;99.90
22635;DHT22;11484;50.858;4.384;2024-01-10T12:42:21;-0.60;99.90
22635;DHT22;11484;50.858;4.384;2024-01-10T12:44:47;-0.50;99.90
22635;DHT22;11484;50.858;4.384;2024-01-10T12:47:20;-0.50;99.90
22635;DHT22;11484;50.858;4.384;2024-01-10T12:49:46;-0.50;99.90
22635;DHT22;11484;50.858;4.384;2024-01-10T12:52:13;-0.40;99.90
22635;DHT22;11484;50.858;4.384;2024-01-10T12:54:39;-0.30;99.90
22635;DHT22;11484;50.858;4.384;2024-01-10T12:57:05;-0.30;99.90
22635;DHT22;11484;50.858;4.384;2024-01-10T12:59:32;-0.20;99.90
22635;DHT22;11484;50.858;4.384;2024-01-10T13:01:59;-0.20;99.90
22635;DHT22;11484;50.858;4.384;2024-01-10T13:04:26;-0.20;99.90
22635;DHT22;11484;50.858;4.384;2024-01-10T13:06:53;-0.20;99.90
22635;DHT22;11484;50.858;4.384;2024-01-10T13:09:19;0.00;99.90
22635;DHT22;11484;50.858;4.384;2024-01-10T13:11:46;0.00;99.90
22635;DHT22;11484;50.858;4.384;2024-01-10T13:14:12;0.10;99.90
22635;DHT22;11484;50.858;4.384;2024-01-10T13:16:38;0.40;99.90
22635;DHT22;11484;50.858;4.384;2024-01-10T13:19:04;0.50;99.20
22635;DHT22;11484;50.858;4.384;2024-01-10T13:21:30;0.50;99.00
22635;DHT22;11484;50.858;4.384;2024-01-10T13:23:57;0.30;99.60
22635;DHT22;11484;50.858;4.384;2024-01-10T13:26:23;0.10;99.50
22635;DHT22;11484;50.858;4.384;2024-01-10T13:28:49;0.20;99.80
22635;DHT22;11484;50.858;4.384;2024-01-10T13:31:16;0.20;99.30
22635;DHT22;11484;50.858;4.384;2024-01-10T13:33:42;0.30;99.20
22635;DHT22;11484;50.858;4.384;2024-01-10T13:36:08;0.30;98.90
22635;DHT22;11484;50.858;4.384;2024-01-10T13:38:34;0.40;98.70
22635;DHT22;11484;50.858;4.384;2024-01-10T13:41:00;0.60;98.50
22635;DHT22;11484;50.858;4.384;2024-01-10T13:43:27;0.70;98.10
22635;DHT22;11484;50.858;4.384;2024-01-10T13:45:53;0.70;97.80
22635;DHT22;11484;50.858;4.384;2024-01-10T13:48:20;0.80;97.90
22635;DHT22;11484;50.858;4.384;2024-01-10T13:50:45;0.60;97.70
22635;DHT22;11484;50.858;4.384;2024-01-10T13:53:11;0.60;98.10
22635;DHT22;11484;50.858;4.384;2024-01-10T13:55:38;0.50;97.90
22635;DHT22;11484;50.858;4.384;2024-01-10T13:58:04;0.50;97.90
22635;DHT22;11484;50.858;4.384;2024-01-10T14:00:30;0.40;98.10
22635;DHT22;11484;50.858;4.384;2024-01-10T14:02:55;0.40;97.80
22635;DHT22;11484;50.858;4.384;2024-01-10T14:05:28;0.30;98.10
22635;DHT22;11484;50.858;4.384;2024-01-10T14:07:54;0.40;98.30
22635;DHT22;11484;50.858;4.384;2024-01-10T14:10:20;0.50;98.10
22635;DHT22;11484;50.858;4.384;2024-01-10T14:12:46;0.60;97.80
22635;DHT22;11484;50.858;4.384;2024-01-10T14:15:11;0.70;97.70
22635;DHT22;11484;50.858;4.384;2024-01-10T14:17:37;0.60;97.40
22635;DHT22;11484;50.858;4.384;2024-01-10T14:20:04;0.60;97.60
22635;DHT22;11484;50.858;4.384;2024-01-10T14:22:30;0.50;97.60
22635;DHT22;11484;50.858;4.384;2024-01-10T14:24:55;0.60;97.80
22635;DHT22;11484;50.858;4.384;2024-01-10T14:27:22;0.80;97.60
22635;DHT22;11484;50.858;4.384;2024-01-10T14:29:48;0.70;97.20
22635;DHT22;11484;50.858;4.384;2024-01-10T14:32:13;0.70;97.40
22635;DHT22;11484;50.858;4.384;2024-01-10T14:34:40;0.70;97.60
22635;DHT22;11484;50.858;4.384;2024-01-10T14:37:06;0.90;97.30
22635;DHT22;11484;50.858;4.384;2024-01-10T14:39:33;1.00;96.90
22635;DHT22;11484;50.858;4.384;2024-01-10T14:41:59;1.20;96.70
22635;DHT22;11484;50.858;4.384;2024-01-10T14:44:25;1.20;96.40
22635;DHT22;11484;50.858;4.384;2024-01-10T14:46:50;1.30;96.50
22635;DHT22;11484;50.858;4.384;2024-01-10T14:49:16;1.20;96.60
22635;DHT22;11484;50.858;4.384;2024-01-10T14:51:42;1.20;96.60
22635;DHT22;11484;50.858;4.384;2024-01-10T14:54:08;1.30;96.70
22635;DHT22;11484;50.858;4.384;2024-01-10T14:56:34;1.20;96.70
22635;DHT22;11484;50.858;4.384;2024-01-10T14:59:00;1.30;96.90
22635;DHT22;11484;50.858;4.384;2024-01-10T15:01:26;1.30;96.70
22635;DHT22;11484;50.858;4.384;2024-01-10T15:03:52;1.20;96.90
22635;DHT22;11484;50.858;4.384;2024-01-10T15:06:18;1.10;97.00
22635;DHT22;11484;50.858;4.384;2024-01-10T15:08:44;1.10;97.20
22635;DHT22;11484;50.858;4.384;2024-01-10T15:11:10;1.10;97.40
22635;DHT22;11484;50.858;4.384;2024-01-10T15:13:37;1.10;97.20
22635;DHT22;11484;50.858;4.384;2024-01-10T15:16:03;1.10;97.40
22635;DHT22;11484;50.858;4.384;2024-01-10T15:18:32;0.90;97.60
22635;DHT22;11484;50.858;4.384;2024-01-10T15:20:59;0.80;97.90
22635;DHT22;11484;50.858;4.384;2024-01-10T15:23:24;0.80;98.00
22635;DHT22;11484;50.858;4.384;2024-01-10T15:25:50;0.60;98.00
22635;DHT22;11484;50.858;4.384;2024-01-10T15:28:16;0.70;98.30
22635;DHT22;11484;50.858;4.384;2024-01-10T15:30:41;0.60;98.40
22635;DHT22;11484;50.858;4.384;2024-01-10T15:33:13;0.70;98.50
22635;DHT22;11484;50.858;4.384;2024-01-10T15:35:39;0.70;98.20
22635;DHT22;11484;50.858;4.384;2024-01-10T15:38:05;0.80;98.30
22635;DHT22;11484;50.858;4.384;2024-01-10T15:40:31;0.80;98.30
22635;DHT22;11484;50.858;4.384;2024-01-10T15:42:57;0.90;98.20